sensor_id;sensor_type;location;lat;lon;timestamp;pressure;altitude;pressure_sealevel;temperature;humidity
46946;BME280;32679;40.810;14.498;2023-02-21T00:00:26;101123.34;;;9.51;100.00
46946;BME280;32679;40.810;14.498;2023-02-21T00:03:10;101111.72;;;9.57;100.00
46946;BME280;32679;40.810;14.498;2023-02-21T00:05:53;101121.47;;;9.63;100.00
46946;BME280;32679;40.810;14.498;2023-02-21T00:08:37;101115.47;;;9.53;100.00
46946;BME280;32679;40.810;14.498;2023-02-21T00:11:21;101116.44;;;9.57;100.00
46946;BME280;32679;40.810;14.498;2023-02-21T00:14:05;101125.28;;;9.59;100.00
46946;BME280;32679;40.810;14.498;2023-02-21T00:16:49;101120.66;;;9.63;100.00
46946;BME280;32679;40.810;14.498;2023-02-21T00:19:33;101123.84;;;10.12;100.00
46946;BME280;32679;40.810;14.498;2023-02-21T00:22:17;101117.41;;;10.20;100.00
46946;BME280;32679;40.810;14.498;2023-02-21T00:25:01;101119.44;;;10.11;100.00
46946;BME280;32679;40.810;14.498;2023-02-21T00:27:44;101105.31;;;9.95;100.00
46946;BME280;32679;40.810;14.498;2023-02-21T00:30:28;101109.59;;;9.92;100.00
46946;BME280;32679;40.810;14.498;2023-02-21T00:33:12;101113.22;;;9.84;100.00
46946;BME280;32679;40.810;14.498;2023-02-21T00:35:56;101103.09;;;9.80;100.00
46946;BME280;32679;40.810;14.498;2023-02-21T00:38:40;101106.22;;;9.78;100.00
46946;BME280;32679;40.810;14.498;2023-02-21T00:41:24;101098.38;;;9.80;100.00
46946;BME280;32679;40.810;14.498;2023-02-21T00:44:08;101104.31;;;9.70;100.00
46946;BME280;32679;40.810;14.498;2023-02-21T00:46:52;101112.66;;;9.70;100.00
46946;BME280;32679;40.810;14.498;2023-02-21T00:49:36;101111.69;;;9.19;100.00
46946;BME280;32679;40.810;14.498;2023-02-21T00:52:20;101111.88;;;9.05;100.00
46946;BME280;32679;40.810;14.498;2023-02-21T00:55:07;101111.06;;;9.05;100.00
46946;BME280;32679;40.810;14.498;2023-02-21T00:57:51;101103.91;;;8.95;100.00
46946;BME280;32679;40.810;14.498;2023-02-21T01:00:35;101105.84;;;8.95;100.00
46946;BME280;32679;40.810;14.498;2023-02-21T01:03:19;101095.25;;;8.97;100.00
46946;BME280;32679;40.810;14.498;2023-02-21T01:06:08;101106.84;;;8.99;100.00
46946;BME280;32679;40.810;14.498;2023-02-21T01:08:52;101090.50;;;9.06;100.00
46946;BME280;32679;40.810;14.498;2023-02-21T01:11:36;101086.25;;;9.08;100.00
46946;BME280;32679;40.810;14.498;2023-02-21T01:14:19;101084.56;;;9.16;100.00
46946;BME280;32679;40.810;14.498;2023-02-21T01:17:03;101078.72;;;9.17;100.00
46946;BME280;32679;40.810;14.498;2023-02-21T01:19:47;101075.41;;;9.24;100.00
46946;BME280;32679;40.810;14.498;2023-02-21T01:22:31;101070.81;;;9.28;100.00
46946;BME280;32679;40.810;14.498;2023-02-21T01:25:16;100988.25;;;8.70;100.00
46946;BME280;32679;40.810;14.498;2023-02-21T01:28:00;101062.22;;;9.12;100.00
46946;BME280;32679;40.810;14.498;2023-02-21T01:30:44;101063.69;;;9.10;100.00
46946;BME280;32679;40.810;14.498;2023-02-21T01:33:28;101063.69;;;9.10;100.00
46946;BME280;32679;40.810;14.498;2023-02-21T01:36:11;101061.41;;;9.12;100.00
46946;BME280;32679;40.810;14.498;2023-02-21T01:38:55;101053.41;;;9.10;100.00
46946;BME280;32679;40.810;14.498;2023-02-21T01:41:40;101053.56;;;9.14;100.00
46946;BME280;32679;40.810;14.498;2023-02-21T01:44:39;101052.75;;;9.05;100.00
46946;BME280;32679;40.810;14.498;2023-02-21T01:47:24;101057.19;;;9.06;100.00
46946;BME280;32679;40.810;14.498;2023-02-21T01:50:15;101048.53;;;9.07;100.00
46946;BME280;32679;40.810;14.498;2023-02-21T01:53:02;101041.19;;;9.03;100.00
46946;BME280;32679;40.810;14.498;2023-02-21T01:55:48;101019.50;;;8.96;100.00
46946;BME280;32679;40.810;14.498;2023-02-21T01:58:32;101039.38;;;9.07;100.00
46946;BME280;32679;40.810;14.498;2023-02-21T02:01:25;101037.25;;;9.04;100.00
46946;BME280;32679;40.810;14.498;2023-02-21T02:04:11;101035.63;;;9.03;100.00
46946;BME280;32679;40.810;14.498;2023-02-21T02:06:55;101031.41;;;8.97;100.00
46946;BME280;32679;40.810;14.498;2023-02-21T02:09:39;101030.44;;;8.92;100.00
46946;BME280;32679;40.810;14.498;2023-02-21T02:15:25;101028.81;;;8.91;100.00
46946;BME280;32679;40.810;14.498;2023-02-21T02:29:32;101018.06;;;8.81;100.00
46946;BME280;32679;40.810;14.498;2023-02-21T02:34:57;100985.31;;;8.66;100.00
46946;BME280;32679;40.810;14.498;2023-02-21T02:37:41;101009.91;;;8.76;100.00
46946;BME280;32679;40.810;14.498;2023-02-21T02:43:25;101006.22;;;8.63;100.00
46946;BME280;32679;40.810;14.498;2023-02-21T02:48:42;101009.78;;;8.55;100.00
46946;BME280;32679;40.810;14.498;2023-02-21T02:51:12;101001.13;;;8.57;100.00
46946;BME280;32679;40.810;14.498;2023-02-21T02:53:38;101009.78;;;8.55;100.00
46946;BME280;32679;40.810;14.498;2023-02-21T02:56:07;101007.69;;;8.52;100.00
46946;BME280;32679;40.810;14.498;2023-02-21T02:58:50;100979.97;;;8.44;100.00
46946;BME280;32679;40.810;14.498;2023-02-21T03:15:04;100996.88;;;8.68;100.00
46946;BME280;32679;40.810;14.498;2023-02-21T03:17:36;100992.63;;;8.79;100.00
46946;BME280;32679;40.810;14.498;2023-02-21T03:20:03;100994.25;;;8.72;100.00
46946;BME280;32679;40.810;14.498;2023-02-21T03:22:31;100984.59;;;8.78;100.00
46946;BME280;32679;40.810;14.498;2023-02-21T03:24:59;100988.19;;;8.78;100.00
46946;BME280;32679;40.810;14.498;2023-02-21T03:27:26;100988.69;;;8.80;100.00
46946;BME280;32679;40.810;14.498;2023-02-21T03:29:55;100987.06;;;8.79;100.00
46946;BME280;32679;40.810;14.498;2023-02-21T03:34:56;100985.28;;;8.75;100.00
46946;BME280;32679;40.810;14.498;2023-02-21T03:39:58;100986.09;;;8.75;100.00
46946;BME280;32679;40.810;14.498;2023-02-21T03:42:24;100987.72;;;8.76;100.00
46946;BME280;32679;40.810;14.498;2023-02-21T03:44:50;100989.03;;;8.70;100.00
46946;BME280;32679;40.810;14.498;2023-02-21T03:47:15;100980.38;;;8.72;100.00
46946;BME280;32679;40.810;14.498;2023-02-21T03:49:41;100981.19;;;8.72;100.00
46946;BME280;32679;40.810;14.498;2023-02-21T03:52:08;100987.44;;;8.69;100.00
46946;BME280;32679;40.810;14.498;2023-02-21T03:54:39;100988.06;;;8.66;100.00
46946;BME280;32679;40.810;14.498;2023-02-21T03:57:07;100991.66;;;8.66;100.00
46946;BME280;32679;40.810;14.498;2023-02-21T03:59:33;100995.59;;;8.65;100.00
46946;BME280;32679;40.810;14.498;2023-02-21T04:01:58;101000.16;;;8.61;100.00
46946;BME280;32679;40.810;14.498;2023-02-21T04:04:24;100996.56;;;8.61;100.00
46946;BME280;32679;40.810;14.498;2023-02-21T04:06:51;100997.56;;;8.56;100.00
46946;BME280;32679;40.810;14.498;2023-02-21T04:09:17;100998.88;;;8.59;100.00
46946;BME280;32679;40.810;14.498;2023-02-21T04:11:45;100994.47;;;8.49;100.00
46946;BME280;32679;40.810;14.498;2023-02-21T04:14:11;100994.13;;;8.51;100.00
46946;BME280;32679;40.810;14.498;2023-02-21T04:16:37;100999.03;;;8.54;100.00
46946;BME280;32679;40.810;14.498;2023-02-21T04:19:06;100995.75;;;8.52;100.00
46946;BME280;32679;40.810;14.498;2023-02-21T04:21:33;100995.00;;;8.43;100.00
46946;BME280;32679;40.810;14.498;2023-02-21T04:23:59;100991.06;;;8.44;100.00
46946;BME280;32679;40.810;14.498;2023-02-21T04:26:26;100991.06;;;8.44;100.00
46946;BME280;32679;40.810;14.498;2023-02-21T04:28:54;100993.00;;;8.34;100.00
46946;BME280;32679;40.810;14.498;2023-02-21T04:31:21;101001.16;;;8.31;100.00
46946;BME280;32679;40.810;14.498;2023-02-21T04:33:47;100996.28;;;8.28;100.00
46946;BME280;32679;40.810;14.498;2023-02-21T04:36:13;100990.72;;;8.19;100.00
46946;BME280;32679;40.810;14.498;2023-02-21T04:38:38;100985.19;;;8.19;100.00
46946;BME280;32679;40.810;14.498;2023-02-21T04:41:04;100986.34;;;8.27;100.00
46946;BME280;32679;40.810;14.498;2023-02-21T04:43:30;100985.50;;;8.35;100.00
46946;BME280;32679;40.810;14.498;2023-02-21T04:45:58;100989.75;;;8.32;100.00
46946;BME280;32679;40.810;14.498;2023-02-21T04:48:24;100982.41;;;8.19;100.00
46946;BME280;32679;40.810;14.498;2023-02-21T04:50:52;100983.56;;;8.18;100.00
46946;BME280;32679;40.810;14.498;2023-02-21T04:53:18;100985.19;;;8.19;100.00
46946;BME280;32679;40.810;14.498;2023-02-21T04:55:44;100982.91;;;8.12;100.00
46946;BME280;32679;40.810;14.498;2023-02-21T04:58:09;100988.28;;;8.09;100.00
46946;BME280;32679;40.810;14.498;2023-02-21T05:00:35;100986.50;;;8.04;100.00
46946;BME280;32679;40.810;14.498;2023-02-21T05:03:00;100989.75;;;8.06;100.00
46946;BME280;32679;40.810;14.498;2023-02-21T05:05:26;100984.38;;;8.10;100.00
46946;BME280;32679;40.810;14.498;2023-02-21T05:07:53;100980.63;;;8.06;100.00
46946;BME280;32679;40.810;14.498;2023-02-21T05:10:19;100991.56;;;8.11;100.00
46946;BME280;32679;40.810;14.498;2023-02-21T05:12:44;100991.88;;;8.18;100.00
46946;BME280;32679;40.810;14.498;2023-02-21T05:15:11;100991.88;;;8.18;100.00
46946;BME280;32679;40.810;14.498;2023-02-21T05:17:37;100988.28;;;8.18;100.00
46946;BME280;32679;40.810;14.498;2023-02-21T05:20:04;100988.28;;;8.18;100.00
46946;BME280;32679;40.810;14.498;2023-02-21T05:22:39;100991.06;;;8.18;100.00
46946;BME280;32679;40.810;14.498;2023-02-21T05:25:16;100985.34;;;8.14;100.00
46946;BME280;32679;40.810;14.498;2023-02-21T05:27:42;100982.09;;;8.12;100.00
46946;BME280;32679;40.810;14.498;2023-02-21T05:30:12;100988.13;;;8.14;100.00
46946;BME280;32679;40.810;14.498;2023-02-21T05:32:39;100979.16;;;8.08;100.00
46946;BME280;32679;40.810;14.498;2023-02-21T05:35:05;100975.25;;;8.01;100.00
46946;BME280;32679;40.810;14.498;2023-02-21T05:37:31;100977.03;;;7.97;100.00
46946;BME280;32679;40.810;14.498;2023-02-21T05:39:56;100966.59;;;8.02;100.00
46946;BME280;32679;40.810;14.498;2023-02-21T05:42:22;100975.72;;;8.03;100.00
46946;BME280;32679;40.810;14.498;2023-02-21T05:44:47;100980.97;;;7.96;100.00
46946;BME280;32679;40.810;14.498;2023-02-21T05:47:13;100980.78;;;7.92;100.00
46946;BME280;32679;40.810;14.498;2023-02-21T05:49:40;100975.59;;;7.99;100.00
46946;BME280;32679;40.810;14.498;2023-02-21T05:52:06;100971.81;;;7.95;100.00
46946;BME280;32679;40.810;14.498;2023-02-21T05:54:32;100968.88;;;7.92;100.00
46946;BME280;32679;40.810;14.498;2023-02-21T05:56:57;100947.84;;;7.82;100.00
46946;BME280;32679;40.810;14.498;2023-02-21T05:59:23;100962.03;;;7.98;100.00
46946;BME280;32679;40.810;14.498;2023-02-21T06:01:49;100981.28;;;8.03;100.00
46946;BME280;32679;40.810;14.498;2023-02-21T06:04:15;100971.34;;;8.10;100.00
46946;BME280;32679;40.810;14.498;2023-02-21T06:06:41;100985.69;;;8.21;100.00
46946;BME280;32679;40.810;14.498;2023-02-21T06:09:07;100978.31;;;8.51;100.00
46946;BME280;32679;40.810;14.498;2023-02-21T06:11:34;100981.19;;;8.72;100.00
46946;BME280;32679;40.810;14.498;2023-02-21T06:14:04;100980.81;;;8.91;100.00
46946;BME280;32679;40.810;14.498;2023-02-21T06:16:34;100981.16;;;8.89;100.00
46946;BME280;32679;40.810;14.498;2023-02-21T06:19:01;100983.59;;;8.91;100.00
46946;BME280;32679;40.810;14.498;2023-02-21T06:21:27;100982.09;;;8.93;100.00
46946;BME280;32679;40.810;14.498;2023-02-21T06:23:53;100989.28;;;8.95;100.00
46946;BME280;32679;40.810;14.498;2023-02-21T06:26:20;100982.09;;;8.93;100.00
46946;BME280;32679;40.810;14.498;2023-02-21T06:28:46;100977.06;;;8.96;100.00
46946;BME280;32679;40.810;14.498;2023-02-21T06:31:12;100986.63;;;9.07;100.00
46946;BME280;32679;40.810;14.498;2023-02-21T06:33:38;100986.75;;;9.19;100.00
46946;BME280;32679;40.810;14.498;2023-02-21T06:36:05;100983.59;;;9.29;100.00
46946;BME280;32679;40.810;14.498;2023-02-21T06:38:34;100986.84;;;9.31;100.00
46946;BME280;32679;40.810;14.498;2023-02-21T06:41:06;100992.38;;;9.31;100.00
46946;BME280;32679;40.810;14.498;2023-02-21T06:43:34;100986.63;;;9.36;100.00
46946;BME280;32679;40.810;14.498;2023-02-21T06:46:03;100987.75;;;9.44;100.00
46946;BME280;32679;40.810;14.498;2023-02-21T06:48:29;100999.50;;;9.50;100.00
46946;BME280;32679;40.810;14.498;2023-02-21T06:51:06;100999.16;;;9.51;100.00
46946;BME280;32679;40.810;14.498;2023-02-21T06:53:36;101002.34;;;9.62;100.00
46946;BME280;32679;40.810;14.498;2023-02-21T06:56:01;100995.16;;;9.61;100.00
46946;BME280;32679;40.810;14.498;2023-02-21T06:58:27;101009.03;;;9.69;100.00
46946;BME280;32679;40.810;14.498;2023-02-21T07:00:52;100998.03;;;9.73;100.00
46946;BME280;32679;40.810;14.498;2023-02-21T07:03:18;101008.28;;;9.81;100.00
46946;BME280;32679;40.810;14.498;2023-02-21T07:05:43;101008.69;;;9.92;100.00
46946;BME280;32679;40.810;14.498;2023-02-21T07:08:11;101011.59;;;9.95;100.00
46946;BME280;32679;40.810;14.498;2023-02-21T07:10:36;101011.19;;;10.06;100.00
46946;BME280;32679;40.810;14.498;2023-02-21T07:13:04;101006.94;;;10.08;100.00
46946;BME280;32679;40.810;14.498;2023-02-21T07:15:30;101015.69;;;10.19;100.00
46946;BME280;32679;40.810;14.498;2023-02-21T07:17:57;101022.47;;;10.30;100.00
46946;BME280;32679;40.810;14.498;2023-02-21T07:20:23;101005.22;;;10.37;100.00
46946;BME280;32679;40.810;14.498;2023-02-21T07:22:52;101009.56;;;10.46;100.00
46946;BME280;32679;40.810;14.498;2023-02-21T07:25:19;101012.38;;;10.59;100.00
46946;BME280;32679;40.810;14.498;2023-02-21T07:27:46;101015.31;;;10.74;100.00
46946;BME280;32679;40.810;14.498;2023-02-21T07:30:12;101007.84;;;10.87;100.00
46946;BME280;32679;40.810;14.498;2023-02-21T07:32:38;101008.06;;;10.94;100.00
46946;BME280;32679;40.810;14.498;2023-02-21T07:35:04;101015.50;;;10.90;100.00
46946;BME280;32679;40.810;14.498;2023-02-21T07:37:29;101014.09;;;10.96;100.00
46946;BME280;32679;40.810;14.498;2023-02-21T07:39:55;101012.03;;;10.93;100.00
46946;BME280;32679;40.810;14.498;2023-02-21T07:42:20;101010.94;;;10.86;100.00
46946;BME280;32679;40.810;14.498;2023-02-21T07:44:53;101016.19;;;10.87;100.00
46946;BME280;32679;40.810;14.498;2023-02-21T07:47:21;101021.88;;;10.91;100.00
46946;BME280;32679;40.810;14.498;2023-02-21T07:49:46;101015.38;;;10.87;100.00
46946;BME280;32679;40.810;14.498;2023-02-21T07:52:12;101017.47;;;10.90;100.00
46946;BME280;32679;40.810;14.498;2023-02-21T07:54:39;101012.69;;;10.90;100.00
46946;BME280;32679;40.810;14.498;2023-02-21T07:57:05;101018.06;;;10.95;100.00
46946;BME280;32679;40.810;14.498;2023-02-21T07:59:35;101015.03;;;10.88;100.00
46946;BME280;32679;40.810;14.498;2023-02-21T08:02:01;101015.97;;;10.92;100.00
46946;BME280;32679;40.810;14.498;2023-02-21T08:04:27;101010.50;;;10.96;100.00
46946;BME280;32679;40.810;14.498;2023-02-21T08:07:00;101014.13;;;11.09;100.00
46946;BME280;32679;40.810;14.498;2023-02-21T08:09:26;101017.63;;;11.18;100.00
46946;BME280;32679;40.810;14.498;2023-02-21T08:11:53;101013.78;;;11.22;100.00
46946;BME280;32679;40.810;14.498;2023-02-21T08:14:19;101014.16;;;11.33;100.00
46946;BME280;32679;40.810;14.498;2023-02-21T08:16:48;101019.25;;;11.43;100.00
46946;BME280;32679;40.810;14.498;2023-02-21T08:19:13;101014.38;;;11.52;100.00
46946;BME280;32679;40.810;14.498;2023-02-21T08:21:46;101019.25;;;11.68;100.00
46946;BME280;32679;40.810;14.498;2023-02-21T08:24:12;101021.09;;;11.76;100.00
46946;BME280;32679;40.810;14.498;2023-02-21T08:26:41;101021.38;;;11.83;100.00
46946;BME280;32679;40.810;14.498;2023-02-21T08:29:10;100987.63;;;11.76;100.00
46946;BME280;32679;40.810;14.498;2023-02-21T08:31:37;101010.75;;;12.01;100.00
46946;BME280;32679;40.810;14.498;2023-02-21T08:34:04;101008.72;;;12.14;100.00
46946;BME280;32679;40.810;14.498;2023-02-21T08:36:38;101021.00;;;12.25;99.54
46946;BME280;32679;40.810;14.498;2023-02-21T08:39:08;101015.72;;;12.36;96.11
46946;BME280;32679;40.810;14.498;2023-02-21T08:41:44;101020.88;;;12.33;95.46
46946;BME280;32679;40.810;14.498;2023-02-21T08:44:12;101011.25;;;12.31;95.46
46946;BME280;32679;40.810;14.498;2023-02-21T08:46:40;101014.47;;;12.33;94.16
46946;BME280;32679;40.810;14.498;2023-02-21T08:49:07;101013.09;;;12.27;94.76
46946;BME280;32679;40.810;14.498;2023-02-21T08:51:33;101013.16;;;12.15;94.97
46946;BME280;32679;40.810;14.498;2023-02-21T08:53:59;101013.59;;;12.17;96.24
46946;BME280;32679;40.810;14.498;2023-02-21T08:56:26;101021.94;;;12.29;96.47
46946;BME280;32679;40.810;14.498;2023-02-21T08:58:52;101024.16;;;12.23;95.58
46946;BME280;32679;40.810;14.498;2023-02-21T09:01:21;101015.53;;;12.28;96.58
46946;BME280;32679;40.810;14.498;2023-02-21T09:03:46;101011.81;;;12.24;96.44
46946;BME280;32679;40.810;14.498;2023-02-21T09:06:12;101005.19;;;12.29;95.74
46946;BME280;32679;40.810;14.498;2023-02-21T09:08:40;101012.69;;;12.13;95.27
46946;BME280;32679;40.810;14.498;2023-02-21T09:11:08;100985.97;;;12.12;95.52
46946;BME280;32679;40.810;14.498;2023-02-21T09:13:36;101014.47;;;12.33;92.77
46946;BME280;32679;40.810;14.498;2023-02-21T09:16:02;101002.16;;;12.34;95.01
46946;BME280;32679;40.810;14.498;2023-02-21T09:18:29;101001.69;;;12.32;95.72
46946;BME280;32679;40.810;14.498;2023-02-21T09:20:55;100995.91;;;12.53;96.92
46946;BME280;32679;40.810;14.498;2023-02-21T09:23:29;100995.94;;;12.69;94.70
46946;BME280;32679;40.810;14.498;2023-02-21T09:25:58;100992.53;;;12.91;91.99
46946;BME280;32679;40.810;14.498;2023-02-21T09:28:25;100997.13;;;12.99;91.28
46946;BME280;32679;40.810;14.498;2023-02-21T09:30:51;100989.66;;;13.03;90.89
46946;BME280;32679;40.810;14.498;2023-02-21T09:33:21;100989.28;;;13.21;88.02
46946;BME280;32679;40.810;14.498;2023-02-21T09:35:46;100985.38;;;13.22;87.34
46946;BME280;32679;40.810;14.498;2023-02-21T09:38:12;100984.88;;;13.20;87.44
46946;BME280;32679;40.810;14.498;2023-02-21T09:43:11;100984.50;;;13.53;87.36
46946;BME280;32679;40.810;14.498;2023-02-21T09:45:40;100991.72;;;13.70;86.27
46946;BME280;32679;40.810;14.498;2023-02-21T09:48:13;100985.38;;;13.73;84.60
46946;BME280;32679;40.810;14.498;2023-02-21T09:50:47;100987.09;;;13.77;85.92
46946;BME280;32679;40.810;14.498;2023-02-21T09:53:18;100985.66;;;13.68;85.17
46946;BME280;32679;40.810;14.498;2023-02-21T09:55:47;100983.25;;;13.50;85.08
46946;BME280;32679;40.810;14.498;2023-02-21T09:58:18;100982.38;;;13.30;87.39
46946;BME280;32679;40.810;14.498;2023-02-21T10:00:44;100975.44;;;13.40;88.43
46946;BME280;32679;40.810;14.498;2023-02-21T10:03:30;100980.56;;;13.54;86.32
46946;BME280;32679;40.810;14.498;2023-02-21T10:06:22;100954.22;;;13.55;85.90
46946;BME280;32679;40.810;14.498;2023-02-21T10:09:03;100976.50;;;13.86;86.06
46946;BME280;32679;40.810;14.498;2023-02-21T10:14:33;100945.88;;;13.39;85.05
46946;BME280;32679;40.810;14.498;2023-02-21T10:17:05;100956.31;;;13.42;86.43
46946;BME280;32679;40.810;14.498;2023-02-21T10:19:39;100976.50;;;13.51;85.60
46946;BME280;32679;40.810;14.498;2023-02-21T10:22:23;100973.91;;;13.43;86.35
46946;BME280;32679;40.810;14.498;2023-02-21T10:24:49;100973.72;;;13.35;86.92
46946;BME280;32679;40.810;14.498;2023-02-21T10:27:26;100962.28;;;13.25;88.60
46946;BME280;32679;40.810;14.498;2023-02-21T10:30:02;100963.03;;;13.22;87.63
46946;BME280;32679;40.810;14.498;2023-02-21T10:32:30;100970.88;;;13.32;88.91
46946;BME280;32679;40.810;14.498;2023-02-21T10:34:57;100960.28;;;13.41;88.23
46946;BME280;32679;40.810;14.498;2023-02-21T10:43:15;100954.28;;;13.74;86.61
46946;BME280;32679;40.810;14.498;2023-02-21T10:48:13;100941.47;;;13.57;85.06
46946;BME280;32679;40.810;14.498;2023-02-21T10:53:29;100944.75;;;13.59;86.76
46946;BME280;32679;40.810;14.498;2023-02-21T10:56:18;100939.38;;;13.70;85.73
46946;BME280;32679;40.810;14.498;2023-02-21T11:04:05;100921.81;;;13.70;86.81
46946;BME280;32679;40.810;14.498;2023-02-21T11:06:39;100917.59;;;13.60;85.58
46946;BME280;32679;40.810;14.498;2023-02-21T11:09:32;100917.25;;;13.46;86.98
46946;BME280;32679;40.810;14.498;2023-02-21T11:12:00;100914.00;;;13.59;86.98
46946;BME280;32679;40.810;14.498;2023-02-21T11:14:29;100912.38;;;13.78;85.36
46946;BME280;32679;40.810;14.498;2023-02-21T11:22:38;100892.13;;;14.23;83.30
46946;BME280;32679;40.810;14.498;2023-02-21T11:28:15;100886.28;;;14.32;82.82
46946;BME280;32679;40.810;14.498;2023-02-21T11:30:49;100889.53;;;14.14;81.90
46946;BME280;32679;40.810;14.498;2023-02-21T11:33:20;100879.13;;;14.11;83.05
46946;BME280;32679;40.810;14.498;2023-02-21T11:35:48;100863.03;;;14.28;83.38
46946;BME280;32679;40.810;14.498;2023-02-21T11:41:32;100862.00;;;14.59;81.31
46946;BME280;32679;40.810;14.498;2023-02-21T11:43:59;100854.97;;;14.68;79.65
46946;BME280;32679;40.810;14.498;2023-02-21T11:49:40;100798.88;;;14.19;80.37
46946;BME280;32679;40.810;14.498;2023-02-21T11:52:17;100835.72;;;14.44;80.28
46946;BME280;32679;40.810;14.498;2023-02-21T11:54:47;100834.53;;;14.45;80.44
46946;BME280;32679;40.810;14.498;2023-02-21T12:13:42;100802.19;;;14.71;78.63
46946;BME280;32679;40.810;14.498;2023-02-21T12:24:37;100786.88;;;14.64;80.13
46946;BME280;32679;40.810;14.498;2023-02-21T12:30:26;100784.84;;;14.88;79.72
46946;BME280;32679;40.810;14.498;2023-02-21T12:36:34;100784.06;;;14.91;77.81
46946;BME280;32679;40.810;14.498;2023-02-21T12:39:22;100778.16;;;14.70;76.88
46946;BME280;32679;40.810;14.498;2023-02-21T12:49:25;100772.03;;;14.87;77.11
46946;BME280;32679;40.810;14.498;2023-02-21T12:52:06;100759.69;;;14.91;76.35
46946;BME280;32679;40.810;14.498;2023-02-21T12:54:46;100754.56;;;14.97;75.51
46946;BME280;32679;40.810;14.498;2023-02-21T12:57:18;100758.91;;;14.94;74.97
46946;BME280;32679;40.810;14.498;2023-02-21T13:05:06;100744.59;;;15.30;72.98
46946;BME280;32679;40.810;14.498;2023-02-21T13:07:46;100740.50;;;15.24;73.70
46946;BME280;32679;40.810;14.498;2023-02-21T13:10:51;100740.31;;;15.09;72.56
46946;BME280;32679;40.810;14.498;2023-02-21T13:13:27;100736.72;;;15.12;73.67
46946;BME280;32679;40.810;14.498;2023-02-21T13:15:56;100728.31;;;15.12;74.21
46946;BME280;32679;40.810;14.498;2023-02-21T13:19:16;100730.66;;;15.07;74.73
46946;BME280;32679;40.810;14.498;2023-02-21T13:21:35;100728.50;;;14.97;75.45
46946;BME280;32679;40.810;14.498;2023-02-21T13:24:13;100732.16;;;14.97;74.94
46946;BME280;32679;40.810;14.498;2023-02-21T13:26:57;100729.75;;;14.99;75.12
46946;BME280;32679;40.810;14.498;2023-02-21T13:29:33;100721.34;;;14.99;75.63
46946;BME280;32679;40.810;14.498;2023-02-21T13:32:07;100715.28;;;14.93;76.18
46946;BME280;32679;40.810;14.498;2023-02-21T13:34:43;100719.28;;;14.92;75.60
46946;BME280;32679;40.810;14.498;2023-02-21T13:37:19;100724.88;;;14.92;75.70
46946;BME280;32679;40.810;14.498;2023-02-21T13:39:51;100722.50;;;14.94;75.27
46946;BME280;32679;40.810;14.498;2023-02-21T13:42:23;100716.69;;;14.80;76.42
46946;BME280;32679;40.810;14.498;2023-02-21T13:53:13;100716.41;;;14.36;78.94
46946;BME280;32679;40.810;14.498;2023-02-21T13:58:41;100717.94;;;14.56;79.76
46946;BME280;32679;40.810;14.498;2023-02-21T14:03:52;100711.13;;;14.31;82.06
46946;BME280;32679;40.810;14.498;2023-02-21T14:08:53;100706.16;;;14.21;83.09
46946;BME280;32679;40.810;14.498;2023-02-21T14:11:27;100697.09;;;14.04;83.76
46946;BME280;32679;40.810;14.498;2023-02-21T14:13:55;100698.97;;;13.97;83.33
46946;BME280;32679;40.810;14.498;2023-02-21T14:18:58;100703.69;;;13.93;85.22
46946;BME280;32679;40.810;14.498;2023-02-21T14:24:02;100612.94;;;13.44;85.63
46946;BME280;32679;40.810;14.498;2023-02-21T14:26:50;100688.47;;;14.16;85.82
46946;BME280;32679;40.810;14.498;2023-02-21T14:29:37;100688.03;;;14.37;86.30
46946;BME280;32679;40.810;14.498;2023-02-21T14:45:19;100678.03;;;14.63;83.27
46946;BME280;32679;40.810;14.498;2023-02-21T15:04:47;100668.06;;;14.12;86.92
46946;BME280;32679;40.810;14.498;2023-02-21T15:10:09;100650.13;;;14.17;86.67
46946;BME280;32679;40.810;14.498;2023-02-21T15:12:44;100655.41;;;14.22;86.28
46946;BME280;32679;40.810;14.498;2023-02-21T15:15:15;100656.97;;;14.20;86.71
46946;BME280;32679;40.810;14.498;2023-02-21T15:17:42;100651.78;;;14.22;86.15
46946;BME280;32679;40.810;14.498;2023-02-21T15:20:16;100651.44;;;14.00;86.38
46946;BME280;32679;40.810;14.498;2023-02-21T15:22:42;100649.53;;;14.04;87.30
46946;BME280;32679;40.810;14.498;2023-02-21T15:27:34;100653.75;;;14.18;86.57
46946;BME280;32679;40.810;14.498;2023-02-21T15:30:13;100652.00;;;14.09;86.24
46946;BME280;32679;40.810;14.498;2023-02-21T15:32:39;100646.09;;;14.14;86.01
46946;BME280;32679;40.810;14.498;2023-02-21T15:35:14;100646.09;;;14.14;86.30
46946;BME280;32679;40.810;14.498;2023-02-21T15:37:44;100651.03;;;13.98;86.45
46946;BME280;32679;40.810;14.498;2023-02-21T15:40:17;100645.84;;;14.00;87.74
46946;BME280;32679;40.810;14.498;2023-02-21T15:42:45;100651.22;;;13.86;88.73
46946;BME280;32679;40.810;14.498;2023-02-21T15:45:23;100655.94;;;13.82;89.17
46946;BME280;32679;40.810;14.498;2023-02-21T15:47:49;100647.56;;;13.82;89.07
46946;BME280;32679;40.810;14.498;2023-02-21T15:50:36;100646.81;;;13.62;89.87
46946;BME280;32679;40.810;14.498;2023-02-21T15:53:18;100613.06;;;13.28;90.61
46946;BME280;32679;40.810;14.498;2023-02-21T15:55:45;100649.66;;;13.43;92.17
46946;BME280;32679;40.810;14.498;2023-02-21T15:58:25;100646.38;;;13.37;93.03
46946;BME280;32679;40.810;14.498;2023-02-21T16:01:05;100652.69;;;13.34;93.15
46946;BME280;32679;40.810;14.498;2023-02-21T16:03:41;100648.28;;;13.33;92.84